createdAt,value
2017-06-02T00:02:20.490Z,15.10
2017-06-02T00:04:48.926Z,15.10
2017-06-02T00:07:17.347Z,15.10
2017-06-02T00:09:45.782Z,15.10
2017-06-02T00:12:14.204Z,15.10
2017-06-02T00:14:42.658Z,15.00
2017-06-02T00:17:10.303Z,15.00
2017-06-02T00:19:38.740Z,15.00
2017-06-02T00:22:07.172Z,14.90
2017-06-02T00:24:35.578Z,14.90
2017-06-02T00:27:04.011Z,14.90
2017-06-02T00:29:32.447Z,14.80
2017-06-02T00:32:00.895Z,14.80
2017-06-02T00:34:29.315Z,14.80
2017-06-02T00:36:57.732Z,14.80
2017-06-02T00:39:26.197Z,14.70
2017-06-02T00:41:54.610Z,14.70
2017-06-02T00:44:23.048Z,14.70
2017-06-02T00:46:51.461Z,14.60
2017-06-02T00:49:19.127Z,14.60
2017-06-02T00:51:47.542Z,14.60
2017-06-02T00:54:15.994Z,14.60
2017-06-02T00:56:44.408Z,14.60
2017-06-02T00:59:12.780Z,14.50
2017-06-02T01:01:41.163Z,14.50
2017-06-02T01:04:09.524Z,14.50
2017-06-02T01:06:37.955Z,14.40
2017-06-02T01:09:06.368Z,14.40
2017-06-02T01:11:34.759Z,14.40
2017-06-02T01:14:03.133Z,14.30
2017-06-02T01:16:31.537Z,14.30
2017-06-02T01:18:59.907Z,14.30
2017-06-02T01:21:28.271Z,14.20
2017-06-02T01:23:56.659Z,14.20
2017-06-02T01:26:25.027Z,14.20
2017-06-02T01:28:53.414Z,14.20
2017-06-02T01:31:21.826Z,14.10
2017-06-02T01:33:50.212Z,14.10
2017-06-02T01:36:18.582Z,14.10
2017-06-02T01:38:46.994Z,14.00
2017-06-02T01:41:15.437Z,14.00
2017-06-02T01:43:43.809Z,13.90
2017-06-02T01:46:12.315Z,14.00
2017-06-02T01:48:40.684Z,14.00
2017-06-02T01:51:09.063Z,13.90
2017-06-02T01:53:37.427Z,13.90
2017-06-02T01:56:05.816Z,13.90
2017-06-02T01:58:34.177Z,13.80
2017-06-02T02:01:02.578Z,13.80
2017-06-02T02:03:30.943Z,13.80
2017-06-02T02:05:59.410Z,13.80
2017-06-02T02:08:27.801Z,13.80
2017-06-02T02:10:56.167Z,13.70
2017-06-02T02:13:24.552Z,13.60
2017-06-02T02:15:53.023Z,13.60
2017-06-02T02:18:21.409Z,13.60
2017-06-02T02:20:49.786Z,13.60
2017-06-02T02:23:18.203Z,13.50
2017-06-02T02:25:46.577Z,13.50
2017-06-02T02:28:14.956Z,13.50
2017-06-02T02:30:43.415Z,13.40
2017-06-02T02:33:11.782Z,13.40
2017-06-02T02:35:40.175Z,13.30
2017-06-02T02:38:08.542Z,13.30
2017-06-02T02:40:36.937Z,13.30
2017-06-02T02:43:05.309Z,13.30
2017-06-02T02:45:33.722Z,13.30
2017-06-02T02:48:02.372Z,13.30
2017-06-02T02:50:30.743Z,13.30
2017-06-02T02:52:59.136Z,13.30
2017-06-02T02:55:27.502Z,13.30
2017-06-02T02:57:55.897Z,13.30
2017-06-02T03:00:24.266Z,13.20
2017-06-02T03:02:52.661Z,13.10
2017-06-02T03:05:21.027Z,13.10
2017-06-02T03:07:49.519Z,13.10
2017-06-02T03:10:17.888Z,13.10
2017-06-02T03:12:46.261Z,13.10
2017-06-02T03:15:14.651Z,13.10
2017-06-02T03:17:43.096Z,13.10
2017-06-02T03:20:11.482Z,13.10
2017-06-02T03:22:39.086Z,13.10
2017-06-02T03:25:07.483Z,13.00
2017-06-02T03:27:35.867Z,13.00
2017-06-02T03:30:04.272Z,13.00
2017-06-02T03:32:32.655Z,12.90
2017-06-02T03:35:01.033Z,12.90
2017-06-02T03:37:29.431Z,12.90
2017-06-02T03:39:57.794Z,12.90
2017-06-02T03:42:26.193Z,12.90
2017-06-02T03:44:54.563Z,12.80
2017-06-02T03:47:22.954Z,12.90
2017-06-02T03:49:51.320Z,12.90
2017-06-02T03:52:19.720Z,12.90
2017-06-02T03:54:48.099Z,12.90
2017-06-02T03:57:15.723Z,12.90
2017-06-02T03:59:44.111Z,13.00
2017-06-02T04:02:12.486Z,13.00
2017-06-02T04:04:40.876Z,13.00
2017-06-02T04:07:09.246Z,13.10
2017-06-02T04:09:37.636Z,13.10
2017-06-02T04:12:06.015Z,13.20
2017-06-02T04:14:34.434Z,13.30
2017-06-02T04:17:02.809Z,13.30
2017-06-02T04:19:31.184Z,13.50
2017-06-02T04:21:59.591Z,13.60
2017-06-02T04:24:27.988Z,13.70
2017-06-02T04:26:56.376Z,13.80
2017-06-02T04:29:24.749Z,13.90
2017-06-02T04:31:53.203Z,13.90
2017-06-02T04:34:21.602Z,14.00
2017-06-02T04:36:49.999Z,14.40
2017-06-02T04:39:18.365Z,15.00
2017-06-02T04:41:46.745Z,15.60
2017-06-02T04:44:15.138Z,16.20
2017-06-02T04:46:43.528Z,16.70
2017-06-02T04:49:11.920Z,17.00
2017-06-02T04:51:40.283Z,17.30
2017-06-02T04:54:08.717Z,17.60
2017-06-02T04:56:36.341Z,17.60
2017-06-02T04:59:04.737Z,18.00
2017-06-02T05:01:33.098Z,18.20
2017-06-02T05:04:01.465Z,18.30
2017-06-02T05:06:29.855Z,18.30
2017-06-02T05:08:58.223Z,18.00
2017-06-02T05:11:26.607Z,17.60
2017-06-02T05:13:54.976Z,17.30
2017-06-02T05:16:23.365Z,17.20
2017-06-02T05:18:51.823Z,17.10
2017-06-02T05:21:19.456Z,17.10
2017-06-02T05:23:47.857Z,17.20
2017-06-02T05:26:16.224Z,17.20
2017-06-02T05:28:44.602Z,17.30
2017-06-02T05:31:12.987Z,17.30
2017-06-02T05:33:41.371Z,17.30
2017-06-02T05:36:08.990Z,17.30
2017-06-02T05:38:37.385Z,17.20
2017-06-02T05:41:04.999Z,17.20
2017-06-02T05:43:33.418Z,17.40
2017-06-02T05:46:01.018Z,17.40
2017-06-02T05:48:29.388Z,17.80
2017-06-02T05:50:58.801Z,17.90
2017-06-02T05:53:27.168Z,18.10
2017-06-02T05:55:55.639Z,18.20
2017-06-02T05:58:24.006Z,18.30
2017-06-02T06:00:52.417Z,18.40
2017-06-02T06:03:20.783Z,18.60
2017-06-02T06:05:49.193Z,18.70
2017-06-02T06:08:17.561Z,18.80
2017-06-02T06:10:45.930Z,19.00
2017-06-02T06:13:14.319Z,19.20
2017-06-02T06:15:43.688Z,19.30
2017-06-02T06:18:12.075Z,19.50
2017-06-02T06:20:40.453Z,19.60
2017-06-02T06:23:08.844Z,19.70
2017-06-02T06:25:37.208Z,19.90
2017-06-02T06:28:05.608Z,20.10
2017-06-02T06:30:33.984Z,20.30
2017-06-02T06:33:02.352Z,20.50
2017-06-02T06:35:30.732Z,20.70
2017-06-02T06:37:59.298Z,20.90
2017-06-02T06:40:27.687Z,21.20
2017-06-02T06:42:56.053Z,21.50
2017-06-02T06:45:24.468Z,21.70
2017-06-02T06:47:52.833Z,22.00
2017-06-02T06:50:21.256Z,22.30
2017-06-02T06:52:49.631Z,22.50
2017-06-02T06:55:17.995Z,22.80
2017-06-02T06:57:46.389Z,23.00
2017-06-02T07:00:13.992Z,23.00
2017-06-02T07:02:42.387Z,23.50
2017-06-02T07:05:10.756Z,23.70
2017-06-02T07:07:39.138Z,23.90
2017-06-02T07:10:07.503Z,24.20
2017-06-02T07:12:35.929Z,24.40
2017-06-02T07:15:04.316Z,24.70
2017-06-02T07:17:32.679Z,24.80
2017-06-02T07:20:01.063Z,25.00
2017-06-02T07:22:29.449Z,25.20
2017-06-02T07:24:57.826Z,25.40
2017-06-02T07:27:26.184Z,25.70
2017-06-02T07:29:54.575Z,25.90
2017-06-02T07:32:22.934Z,26.20
2017-06-02T07:34:51.319Z,26.40
2017-06-02T07:37:19.681Z,26.60
2017-06-02T07:39:48.044Z,26.70
2017-06-02T07:42:16.418Z,26.70
2017-06-02T07:44:44.839Z,26.70
2017-06-02T07:47:13.222Z,26.70
2017-06-02T07:49:41.595Z,26.60
2017-06-02T07:52:09.979Z,26.20
2017-06-02T07:54:38.351Z,25.90
2017-06-02T07:57:06.704Z,26.00
2017-06-02T07:59:35.084Z,26.20
2017-06-02T08:02:03.441Z,26.50
2017-06-02T08:04:31.867Z,26.70
2017-06-02T08:07:00.226Z,26.90
2017-06-02T08:09:28.603Z,27.10
2017-06-02T08:11:56.966Z,27.10
2017-06-02T08:14:25.392Z,27.20
2017-06-02T08:16:53.771Z,27.30
2017-06-02T08:19:22.128Z,27.40
2017-06-02T08:21:50.511Z,27.50
2017-06-02T08:24:18.891Z,27.50
2017-06-02T08:26:47.271Z,27.70
2017-06-02T08:29:15.631Z,27.70
2017-06-02T08:31:44.013Z,27.60
2017-06-02T08:34:12.370Z,27.60
2017-06-02T08:36:40.775Z,27.60
2017-06-02T08:39:09.135Z,27.70
2017-06-02T08:41:37.495Z,27.90
2017-06-02T08:44:05.882Z,28.10
2017-06-02T08:46:34.250Z,28.30
2017-06-02T08:49:02.622Z,28.50
2017-06-02T08:51:30.984Z,28.30
2017-06-02T08:53:59.375Z,27.90
2017-06-02T08:56:27.749Z,27.50
2017-06-02T08:58:56.178Z,27.40
2017-06-02T09:01:24.527Z,27.70
2017-06-02T09:03:52.962Z,27.90
2017-06-02T09:06:21.338Z,27.90
2017-06-02T09:08:48.983Z,27.80
2017-06-02T09:11:17.370Z,27.80
2017-06-02T09:13:45.735Z,27.70
2017-06-02T09:16:14.167Z,27.80
2017-06-02T09:18:42.526Z,28.10
2017-06-02T09:21:10.935Z,28.40
2017-06-02T09:23:39.295Z,28.80
2017-06-02T09:26:07.663Z,28.60
2017-06-02T09:28:36.047Z,28.10
2017-06-02T09:31:04.421Z,27.60
2017-06-02T09:33:32.799Z,27.40
2017-06-02T09:36:01.178Z,27.60
2017-06-02T09:38:29.589Z,28.00
2017-06-02T09:40:57.963Z,28.50
2017-06-02T09:43:26.363Z,28.90
2017-06-02T09:45:54.812Z,29.30
2017-06-02T09:48:23.182Z,29.50
2017-06-02T09:50:51.580Z,29.50
2017-06-02T09:53:19.953Z,29.50
2017-06-02T09:55:48.428Z,29.70
2017-06-02T09:58:16.804Z,29.90
2017-06-02T10:00:45.167Z,29.80
2017-06-02T10:03:13.546Z,29.50
2017-06-02T10:05:41.914Z,29.10
2017-06-02T10:08:10.374Z,28.60
2017-06-02T10:10:38.749Z,28.20
2017-06-02T10:13:08.444Z,27.90
2017-06-02T10:15:36.099Z,27.90
2017-06-02T10:18:04.488Z,27.50
2017-06-02T10:20:32.848Z,27.40
2017-06-02T10:23:01.219Z,27.80
2017-06-02T10:25:29.610Z,28.40
2017-06-02T10:27:57.985Z,28.90
2017-06-02T10:30:26.373Z,29.30
2017-06-02T10:32:53.987Z,29.30
2017-06-02T10:35:22.380Z,30.20
2017-06-02T10:37:50.835Z,30.70
2017-06-02T10:40:19.255Z,31.10
2017-06-02T10:42:47.664Z,30.90
2017-06-02T10:45:16.025Z,30.40
2017-06-02T10:47:44.481Z,29.90
2017-06-02T10:50:12.839Z,29.60
2017-06-02T10:52:41.217Z,29.70
2017-06-02T10:55:09.605Z,30.10
2017-06-02T10:57:38.170Z,30.40
2017-06-02T11:00:06.538Z,30.20
2017-06-02T11:02:34.931Z,30.00
2017-06-02T11:05:03.294Z,29.80
2017-06-02T11:07:31.663Z,29.60
2017-06-02T11:10:00.038Z,29.70
2017-06-02T11:12:28.400Z,30.40
2017-06-02T11:14:56.792Z,31.10
2017-06-02T11:17:25.150Z,31.40
2017-06-02T11:19:53.530Z,31.50
2017-06-02T11:22:21.904Z,31.50
2017-06-02T11:24:50.309Z,31.20
2017-06-02T11:27:18.667Z,31.20
2017-06-02T11:29:47.025Z,31.70
2017-06-02T11:32:15.416Z,32.20
2017-06-02T11:34:43.828Z,32.60
2017-06-02T11:37:12.210Z,32.50
2017-06-02T11:39:39.834Z,32.50
2017-06-02T11:42:08.378Z,33.30
2017-06-02T11:44:36.735Z,33.70
2017-06-02T11:47:05.151Z,33.90
2017-06-02T11:49:33.529Z,33.80
2017-06-02T11:52:01.879Z,33.30
2017-06-02T11:54:30.268Z,32.90
2017-06-02T11:56:58.640Z,32.60
2017-06-02T11:59:27.019Z,32.40
2017-06-02T12:01:55.401Z,32.50
2017-06-02T12:04:23.814Z,32.70
2017-06-02T12:06:52.177Z,32.80
2017-06-02T12:09:20.590Z,32.90
2017-06-02T12:11:48.944Z,33.20
2017-06-02T12:14:17.303Z,33.40
2017-06-02T12:16:44.930Z,33.30
2017-06-02T12:19:13.384Z,33.80
2017-06-02T12:21:41.832Z,33.40
2017-06-02T12:24:10.222Z,33.20
2017-06-02T12:26:38.635Z,32.90
2017-06-02T12:29:07.095Z,32.50
2017-06-02T12:31:35.483Z,32.20
2017-06-02T12:34:03.841Z,31.70
2017-06-02T12:36:32.204Z,31.50
2017-06-02T12:39:00.583Z,31.40
2017-06-02T12:41:28.184Z,31.40
2017-06-02T12:43:56.563Z,31.50
2017-06-02T12:46:24.918Z,31.60
2017-06-02T12:48:53.385Z,31.50
2017-06-02T12:51:21.747Z,31.50
2017-06-02T12:53:50.159Z,31.30
2017-06-02T12:56:18.513Z,31.20
2017-06-02T12:58:46.876Z,30.90
2017-06-02T13:01:15.284Z,30.70
2017-06-02T13:03:43.649Z,30.50
2017-06-02T13:06:12.022Z,30.40
2017-06-02T13:08:40.388Z,30.40
2017-06-02T13:11:08.785Z,30.40
2017-06-02T13:13:37.150Z,30.40
2017-06-02T13:16:05.527Z,30.40
2017-06-02T13:18:33.903Z,30.50
2017-06-02T13:21:02.416Z,30.40
2017-06-02T13:23:30.799Z,30.30
2017-06-02T13:25:59.162Z,30.10
2017-06-02T13:28:27.541Z,29.90
2017-06-02T13:30:55.900Z,29.70
2017-06-02T13:33:24.295Z,29.40
2017-06-02T13:35:52.654Z,28.90
2017-06-02T13:38:21.070Z,28.40
2017-06-02T13:40:49.531Z,27.90
2017-06-02T13:43:17.891Z,27.50
2017-06-02T13:45:46.400Z,27.20
2017-06-02T13:48:14.766Z,27.00
2017-06-02T13:50:43.149Z,26.80
2017-06-02T13:53:11.508Z,26.70
2017-06-02T13:55:40.119Z,26.50
2017-06-02T13:58:08.484Z,26.30
2017-06-02T14:00:37.855Z,26.20
2017-06-02T14:03:06.211Z,26.00
2017-06-02T14:05:34.566Z,25.80
2017-06-02T14:08:02.939Z,25.60
2017-06-02T14:10:31.376Z,25.40
2017-06-02T14:12:58.986Z,25.40
2017-06-02T14:15:27.344Z,25.00
2017-06-02T14:17:55.759Z,24.80
2017-06-02T14:20:24.354Z,24.50
2017-06-02T14:22:52.707Z,24.10
2017-06-02T14:25:21.094Z,23.90
2017-06-02T14:27:49.454Z,23.60
2017-06-02T14:30:17.836Z,23.30
2017-06-02T14:32:46.228Z,22.90
2017-06-02T14:35:14.857Z,22.40
2017-06-02T14:37:43.226Z,22.00
2017-06-02T14:40:11.105Z,21.90
2017-06-02T14:42:39.487Z,21.20
2017-06-02T14:45:07.902Z,20.90
2017-06-02T14:47:36.416Z,20.80
2017-06-02T14:50:05.494Z,20.70
2017-06-02T14:52:33.891Z,20.60
2017-06-02T14:55:02.267Z,20.70
2017-06-02T14:57:30.682Z,20.70
2017-06-02T14:59:59.043Z,20.80
2017-06-02T15:02:27.416Z,20.90
2017-06-02T15:04:55.815Z,20.90
2017-06-02T15:07:24.197Z,20.80
2017-06-02T15:09:52.603Z,20.80
2017-06-02T15:12:20.968Z,20.70
2017-06-02T15:14:49.358Z,20.60
2017-06-02T15:17:17.757Z,20.70
2017-06-02T15:19:46.179Z,20.60
2017-06-02T15:22:14.557Z,20.60
2017-06-02T15:24:43.034Z,20.50
2017-06-02T15:27:11.455Z,20.40
2017-06-02T15:29:39.838Z,20.40
2017-06-02T15:32:08.269Z,20.40
2017-06-02T15:34:36.643Z,20.50
2017-06-02T15:37:05.030Z,20.50
2017-06-02T15:39:32.627Z,20.50
2017-06-02T15:42:01.053Z,20.30
2017-06-02T15:44:29.418Z,20.30
2017-06-02T15:46:57.805Z,20.20
2017-06-02T15:49:26.188Z,20.20
2017-06-02T15:51:54.570Z,20.20
2017-06-02T15:54:22.961Z,19.90
2017-06-02T15:56:51.328Z,19.80
2017-06-02T15:59:19.718Z,19.70
2017-06-02T16:01:48.091Z,19.70
2017-06-02T16:04:16.493Z,19.60
2017-06-02T16:06:44.863Z,19.70
2017-06-02T16:09:13.244Z,19.70
2017-06-02T16:11:41.636Z,19.80
2017-06-02T16:14:10.007Z,19.80
2017-06-02T16:16:38.390Z,19.90
2017-06-02T16:19:07.334Z,19.90
2017-06-02T16:21:35.730Z,19.90
2017-06-02T16:24:04.131Z,19.90
2017-06-02T16:26:32.523Z,19.90
2017-06-02T16:29:00.882Z,19.90
2017-06-02T16:31:29.247Z,19.90
2017-06-02T16:33:57.638Z,19.90
2017-06-02T16:36:26.018Z,19.90
2017-06-02T16:38:53.643Z,19.80
2017-06-02T16:41:22.002Z,19.90
2017-06-02T16:43:50.390Z,19.90
2017-06-02T16:46:18.003Z,19.90
2017-06-02T16:48:46.557Z,19.90
2017-06-02T16:51:14.928Z,19.90
2017-06-02T16:53:43.291Z,19.90
2017-06-02T16:56:11.678Z,19.90
2017-06-02T16:58:40.047Z,19.80
2017-06-02T17:01:07.662Z,19.80
2017-06-02T17:03:36.023Z,19.70
2017-06-02T17:06:04.407Z,19.60
2017-06-02T17:08:32.764Z,19.60
2017-06-02T17:11:01.175Z,19.60
2017-06-02T17:13:29.542Z,19.60
2017-06-02T17:15:57.927Z,19.70
2017-06-02T17:18:26.306Z,19.70
2017-06-02T17:20:54.686Z,19.70
2017-06-02T17:23:23.066Z,19.80
2017-06-02T17:25:51.443Z,19.90
2017-06-02T17:28:19.832Z,19.90
2017-06-02T17:30:48.200Z,20.00
2017-06-02T17:33:16.598Z,20.00
2017-06-02T17:35:44.963Z,20.00
2017-06-02T17:38:13.354Z,20.00
2017-06-02T17:40:41.717Z,20.00
2017-06-02T17:43:10.137Z,20.00
2017-06-02T17:45:38.498Z,20.10
2017-06-02T17:48:06.875Z,20.10
2017-06-02T17:50:35.264Z,20.10
2017-06-02T17:53:03.630Z,20.10
2017-06-02T17:55:32.036Z,20.10
2017-06-02T17:58:00.407Z,20.10
2017-06-02T18:00:28.786Z,20.20
2017-06-02T18:02:57.167Z,20.20
2017-06-02T18:05:25.555Z,20.20
2017-06-02T18:07:53.919Z,20.20
2017-06-02T18:10:23.170Z,20.30
2017-06-02T18:12:52.266Z,20.20
2017-06-02T18:15:20.670Z,20.20
2017-06-02T18:17:49.027Z,20.20
2017-06-02T18:20:17.415Z,20.20
2017-06-02T18:22:45.802Z,20.20
2017-06-02T18:25:14.159Z,20.20
2017-06-02T18:27:41.970Z,20.20
2017-06-02T18:30:10.327Z,20.50
2017-06-02T18:32:38.714Z,20.70
2017-06-02T18:35:07.068Z,20.80
2017-06-02T18:37:35.456Z,20.70
2017-06-02T18:40:03.814Z,20.60
2017-06-02T18:42:32.247Z,20.50
2017-06-02T18:45:00.604Z,20.40
2017-06-02T18:47:29.173Z,20.30
2017-06-02T18:49:57.690Z,20.20
2017-06-02T18:52:26.150Z,20.20
2017-06-02T18:54:54.509Z,20.10
2017-06-02T18:57:22.355Z,20.10
2017-06-02T18:59:50.736Z,20.00
2017-06-02T19:02:19.160Z,19.90
2017-06-02T19:04:47.549Z,19.90
2017-06-02T19:07:15.918Z,19.80
2017-06-02T19:09:44.301Z,19.80
2017-06-02T19:12:13.695Z,19.70
2017-06-02T19:14:42.096Z,19.70
2017-06-02T19:17:10.456Z,19.60
2017-06-02T19:19:38.834Z,19.60
2017-06-02T19:22:07.194Z,19.50
2017-06-02T19:24:35.554Z,19.50
2017-06-02T19:27:04.940Z,19.40
2017-06-02T19:29:33.323Z,19.30
2017-06-02T19:32:01.733Z,19.30
2017-06-02T19:34:30.087Z,19.10
2017-06-02T19:36:58.466Z,19.10
2017-06-02T19:39:26.822Z,19.00
2017-06-02T19:41:55.219Z,19.00
2017-06-02T19:44:23.603Z,18.90
2017-06-02T19:46:52.050Z,18.80
2017-06-02T19:49:20.525Z,18.80
2017-06-02T19:51:48.939Z,18.80
2017-06-02T19:54:17.298Z,18.70
2017-06-02T19:56:45.672Z,18.60
2017-06-02T19:59:14.051Z,18.60
2017-06-02T20:01:42.436Z,18.50
2017-06-02T20:04:10.826Z,18.40
2017-06-02T20:06:39.189Z,18.40
2017-06-02T20:09:07.595Z,18.40
2017-06-02T20:11:35.962Z,18.40
2017-06-02T20:14:04.347Z,18.40
2017-06-02T20:16:32.709Z,18.30
2017-06-02T20:19:01.114Z,18.30
2017-06-02T20:21:29.492Z,18.30
2017-06-02T20:23:57.870Z,18.30
2017-06-02T20:26:26.257Z,18.20
2017-06-02T20:28:54.635Z,18.20
2017-06-02T20:31:23.027Z,18.20
2017-06-02T20:33:51.439Z,18.20
2017-06-02T20:36:19.800Z,18.20
2017-06-02T20:38:48.172Z,18.20
2017-06-02T20:41:16.555Z,18.10
2017-06-02T20:43:44.935Z,18.10
2017-06-02T20:46:13.326Z,18.10
2017-06-02T20:48:41.697Z,18.10
2017-06-02T20:51:10.082Z,18.10
2017-06-02T20:53:38.442Z,18.00
2017-06-02T20:56:06.818Z,18.00
2017-06-02T20:58:35.180Z,17.90
2017-06-02T21:01:03.563Z,17.90
2017-06-02T21:03:31.920Z,17.90
2017-06-02T21:06:00.332Z,17.90
2017-06-02T21:08:28.770Z,17.80
2017-06-02T21:10:57.138Z,17.80
2017-06-02T21:13:25.535Z,17.70
2017-06-02T21:15:53.907Z,17.70
2017-06-02T21:18:22.298Z,17.70
2017-06-02T21:20:50.666Z,17.70
2017-06-02T21:23:19.073Z,17.70
2017-06-02T21:25:47.440Z,17.60
2017-06-02T21:28:15.822Z,17.60
2017-06-02T21:30:44.185Z,17.60
2017-06-02T21:33:12.592Z,17.60
2017-06-02T21:35:40.964Z,17.60
2017-06-02T21:38:09.324Z,17.60
2017-06-02T21:40:37.713Z,17.70
2017-06-02T21:43:06.099Z,17.70
2017-06-02T21:45:34.484Z,17.70
2017-06-02T21:48:02.848Z,17.60
2017-06-02T21:50:30.460Z,17.60
2017-06-02T21:52:58.820Z,17.60
2017-06-02T21:55:27.214Z,17.60
2017-06-02T21:57:55.578Z,17.60
2017-06-02T22:00:23.948Z,17.70
2017-06-02T22:02:52.331Z,17.70
2017-06-02T22:05:20.683Z,17.70
2017-06-02T22:07:49.064Z,17.70
2017-06-02T22:10:17.426Z,17.70
2017-06-02T22:12:45.840Z,17.70
2017-06-02T22:15:14.208Z,17.70
2017-06-02T22:17:42.605Z,17.70
2017-06-02T22:20:10.974Z,17.60
2017-06-02T22:22:39.336Z,17.60
2017-06-02T22:25:07.714Z,17.70
2017-06-02T22:27:36.086Z,17.70
2017-06-02T22:30:04.464Z,17.70
2017-06-02T22:32:32.822Z,17.70
2017-06-02T22:35:01.223Z,17.70
2017-06-02T22:37:29.579Z,17.80
2017-06-02T22:39:58.022Z,17.80
2017-06-02T22:42:25.824Z,17.70
2017-06-02T22:44:54.186Z,17.60
2017-06-02T22:47:22.595Z,17.60
2017-06-02T22:49:50.960Z,17.60
2017-06-02T22:52:19.348Z,17.70
2017-06-02T22:54:47.708Z,17.70
2017-06-02T22:57:16.104Z,17.70
2017-06-02T22:59:44.468Z,17.70
2017-06-02T23:02:12.875Z,17.80
2017-06-02T23:04:41.244Z,17.80
2017-06-02T23:07:09.603Z,17.80
2017-06-02T23:09:37.994Z,17.80
2017-06-02T23:12:06.611Z,17.80
2017-06-02T23:14:35.000Z,17.80
2017-06-02T23:17:03.368Z,17.80
2017-06-02T23:19:31.754Z,17.90
2017-06-02T23:22:00.114Z,17.90
2017-06-02T23:24:28.513Z,17.90
2017-06-02T23:26:56.880Z,17.90
2017-06-02T23:29:25.243Z,17.90
2017-06-02T23:31:53.636Z,17.90
2017-06-02T23:34:21.995Z,17.90
2017-06-02T23:36:50.382Z,17.80
2017-06-02T23:39:18.739Z,17.80
2017-06-02T23:41:47.118Z,17.80
2017-06-02T23:44:15.500Z,17.80
2017-06-02T23:46:43.892Z,17.70
2017-06-02T23:49:12.258Z,17.70
2017-06-02T23:51:40.637Z,17.70
2017-06-02T23:54:09.028Z,17.80
2017-06-02T23:56:36.627Z,17.70
2017-06-02T23:59:05.011Z,17.80
